createdAt,value
2023-02-25T00:02:19.738Z,25.1
2023-02-25T00:08:13.645Z,25.1
2023-02-25T00:14:07.049Z,24.6
2023-02-25T00:20:00.944Z,25.6
2023-02-25T00:26:03.076Z,27.2
2023-02-25T00:31:55.983Z,27.6
2023-02-25T00:37:49.042Z,26.5
2023-02-25T00:43:48.101Z,25.9
2023-02-25T00:49:31.940Z,25.4
2023-02-25T00:55:25.369Z,25
2023-02-25T01:01:24.657Z,24.8
2023-02-25T01:07:20.333Z,24.6
2023-02-25T01:13:14.034Z,25.8
2023-02-25T01:18:37.608Z,27.3
2023-02-25T01:24:14.623Z,27.5
2023-02-25T01:30:08.151Z,26.2
2023-02-25T01:36:02.622Z,25.7
2023-02-25T01:41:55.895Z,25.1
2023-02-25T01:47:49.170Z,24.8
2023-02-25T01:53:42.644Z,24.5
2023-02-25T01:59:35.774Z,25.1
2023-02-25T02:05:28.863Z,26.3
2023-02-25T02:11:22.659Z,27.4
2023-02-25T02:17:16.329Z,27.3
2023-02-25T02:23:09.380Z,25.8
2023-02-25T02:29:01.739Z,25.3
2023-02-25T02:34:39.117Z,24.8
2023-02-25T02:40:17.200Z,25.1
2023-02-25T02:46:10.180Z,26.2
2023-02-25T02:52:02.787Z,27.4
2023-02-25T02:57:40.508Z,27.3
2023-02-25T03:03:33.748Z,25.9
2023-02-25T03:09:11.804Z,25.4
2023-02-25T03:14:33.439Z,24.9
2023-02-25T03:20:11.604Z,24.7
2023-02-25T03:25:50.428Z,25.5
2023-02-25T03:31:27.389Z,27.1
2023-02-25T03:37:04.644Z,27.4
2023-02-25T03:42:42.097Z,26.3
2023-02-25T03:48:20.990Z,25.6
2023-02-25T03:53:42.893Z,25
2023-02-25T03:59:21.126Z,24.7
2023-02-25T04:05:14.769Z,25.1
2023-02-25T04:10:52.139Z,26.6
2023-02-25T04:16:13.723Z,27.4
2023-02-25T04:22:07.153Z,27.3
2023-02-25T04:27:29.459Z,25.8
2023-02-25T04:33:23.968Z,25.4
2023-02-25T04:39:17.928Z,24.8
2023-02-25T04:45:11.301Z,24.7
2023-02-25T04:51:05.719Z,25.6
2023-02-25T04:56:59.314Z,27.1
2023-02-25T05:02:52.129Z,27.4
2023-02-25T05:08:45.071Z,26.1
2023-02-25T05:14:40.459Z,25.5
2023-02-25T05:20:03.960Z,24.9
2023-02-25T05:25:56.801Z,24.6
2023-02-25T05:31:50.603Z,25.1
2023-02-25T05:37:29.466Z,26.8
2023-02-25T05:43:05.518Z,27.4
2023-02-25T05:48:59.184Z,26.8
2023-02-25T05:54:35.100Z,25.6
2023-02-25T06:00:12.741Z,25.1
2023-02-25T06:05:50.560Z,24.6
2023-02-25T06:11:12.313Z,24.9
2023-02-25T06:17:06.177Z,25.9
2023-02-25T06:22:43.721Z,27.3
2023-02-25T06:28:37.386Z,27.4
2023-02-25T06:34:16.444Z,25.9
2023-02-25T06:39:54.032Z,25.4
2023-02-25T06:45:47.354Z,24.8
2023-02-25T06:51:26.557Z,24.5
2023-02-25T06:57:03.156Z,25.1
2023-02-25T07:02:40.880Z,26.8
2023-02-25T07:08:36.309Z,27.4
2023-02-25T07:13:58.719Z,26.4
2023-02-25T07:19:21.303Z,25.6
2023-02-25T07:24:58.007Z,25.1
2023-02-25T07:30:50.663Z,24.7
2023-02-25T07:36:45.482Z,24.4
2023-02-25T07:42:38.015Z,24.1
2023-02-25T07:48:30.969Z,24.2
2023-02-25T07:54:24.083Z,25.3
2023-02-25T08:00:20.492Z,26.3
2023-02-25T08:06:14.432Z,26.1
2023-02-25T08:12:09.027Z,25.9
2023-02-25T08:18:02.024Z,25.8
2023-02-25T08:23:55.998Z,25.5
2023-02-25T08:29:49.326Z,24.8
2023-02-25T08:35:29.122Z,25.3
2023-02-25T08:41:25.018Z,26.3
2023-02-25T08:47:17.701Z,26.3
2023-02-25T08:53:10.669Z,26
2023-02-25T08:59:03.616Z,25.8
2023-02-25T09:04:56.661Z,25.4
2023-02-25T09:11:06.014Z,24.9
2023-02-25T09:16:42.846Z,25
2023-02-25T09:22:35.549Z,26.3
2023-02-25T09:28:28.596Z,26.2
2023-02-25T09:34:22.258Z,25.9
2023-02-25T09:40:15.163Z,25.8
2023-02-25T09:46:07.889Z,25.6
2023-02-25T09:51:48.634Z,25.4
2023-02-25T09:57:26.396Z,24.4
2023-02-25T10:03:05.052Z,26.1
2023-02-25T10:08:42.177Z,26.3
2023-02-25T10:14:19.937Z,26.1
2023-02-25T10:19:47.011Z,25.9
2023-02-25T10:25:23.500Z,25.8
2023-02-25T10:31:16.152Z,25.5
2023-02-25T10:37:09.403Z,24.3
2023-02-25T10:43:02.301Z,26
2023-02-25T10:48:55.556Z,26.3
2023-02-25T10:54:54.632Z,26.2
2023-02-25T11:00:47.565Z,26
2023-02-25T11:06:41.608Z,25.8
2023-02-25T11:12:35.964Z,24.8
2023-02-25T11:18:47.879Z,25.1
2023-02-25T11:24:41.209Z,26.3
2023-02-25T11:30:33.036Z,26.3
2023-02-25T11:36:30.537Z,26.2
2023-02-25T11:42:26.667Z,26.1
2023-02-25T11:48:20.020Z,25.8
2023-02-25T11:54:12.522Z,24.4
2023-02-25T11:59:34.453Z,26
2023-02-25T12:05:27.467Z,26.4
2023-02-25T12:11:34.720Z,26.4
2023-02-25T12:17:11.841Z,26.3
2023-02-25T12:23:04.722Z,26.1
2023-02-25T12:28:57.813Z,25.9
2023-02-25T12:34:50.637Z,24.4
2023-02-25T12:40:46.396Z,26.1
2023-02-25T12:46:40.561Z,26.4
2023-02-25T12:52:34.088Z,26.3
2023-02-25T12:58:12.074Z,26.1
2023-02-25T13:04:06.753Z,25.8
2023-02-25T13:09:59.676Z,24.6
2023-02-25T13:16:17.851Z,25.6
2023-02-25T13:22:11.815Z,26.3
2023-02-25T13:28:04.333Z,26.3
2023-02-25T13:33:58.514Z,26.1
2023-02-25T13:39:36.242Z,25.9
2023-02-25T13:45:28.558Z,25.6
2023-02-25T13:51:21.884Z,25.3
2023-02-25T13:57:17.330Z,24.9
2023-02-25T14:03:09.714Z,24.4
2023-02-25T14:09:02.010Z,24.1
2023-02-25T14:14:59.392Z,23.9
2023-02-25T14:20:53.213Z,23.6
2023-02-25T14:26:31.060Z,23.3
2023-02-25T14:32:10.047Z,23.1
2023-02-25T14:38:02.474Z,22.8
2023-02-25T14:43:56.053Z,22.6
2023-02-25T14:49:48.888Z,22.6
2023-02-25T14:55:40.922Z,22.4
2023-02-25T15:01:34.129Z,22.3
2023-02-25T15:07:29.585Z,22.2
2023-02-25T15:13:22.660Z,23.2
2023-02-25T15:19:16.005Z,25.6
2023-02-25T15:24:54.380Z,27.3
2023-02-25T15:30:46.166Z,28.2
2023-02-25T15:36:41.412Z,28.4
2023-02-25T15:42:33.869Z,28.6
2023-02-25T15:48:28.923Z,29
2023-02-25T15:53:51.199Z,29.3
2023-02-25T15:59:29.748Z,29.4
2023-02-25T16:05:27.523Z,29.7
2023-02-25T16:11:20.055Z,29.6
2023-02-25T16:17:13.998Z,29.9
2023-02-25T16:23:07.018Z,30
2023-02-25T16:28:59.332Z,30.2
2023-02-25T16:34:53.378Z,30.5
2023-02-25T16:40:35.440Z,30.4
2023-02-25T16:46:36.499Z,30.4
2023-02-25T16:52:30.594Z,30.3
2023-02-25T16:58:23.570Z,30.4
2023-02-25T17:04:01.323Z,30.2
2023-02-25T17:09:54.519Z,29.8
2023-02-25T17:15:47.307Z,29.6
2023-02-25T17:21:25.666Z,30.1
2023-02-25T17:27:20.523Z,30.3
2023-02-25T17:33:14.696Z,30.7
2023-02-25T17:39:10.658Z,30.8
2023-02-25T17:45:04.710Z,30.9
2023-02-25T17:50:58.752Z,31.2
2023-02-25T17:56:52.889Z,31.1
2023-02-25T18:02:48.744Z,31.2
2023-02-25T18:08:43.196Z,31.5
2023-02-25T18:14:37.573Z,31.5
2023-02-25T18:20:41.618Z,32
2023-02-25T18:26:35.597Z,32.3
2023-02-25T18:32:30.634Z,32.4
2023-02-25T18:38:10.841Z,32.6
2023-02-25T18:44:05.191Z,32.8
2023-02-25T18:50:00.134Z,32.9
2023-02-25T18:55:54.699Z,33
2023-02-25T19:01:32.276Z,32.9
2023-02-25T19:07:25.798Z,32.8
2023-02-25T19:13:19.812Z,32.8
2023-02-25T19:19:14.679Z,32.8
2023-02-25T19:25:07.129Z,33.2
2023-02-25T19:31:00.529Z,33.3
2023-02-25T19:36:40.887Z,33.3
2023-02-25T19:42:33.776Z,33.1
2023-02-25T19:48:27.499Z,32.9
2023-02-25T19:54:21.488Z,32.9
2023-02-25T20:00:15.936Z,32.6
2023-02-25T20:06:10.564Z,32.8
2023-02-25T20:12:04.634Z,32.4
2023-02-25T20:17:59.142Z,32
2023-02-25T20:23:55.433Z,31.6
2023-02-25T20:29:48.734Z,31.3
2023-02-25T20:35:29.866Z,31.1
2023-02-25T20:41:23.388Z,30.8
2023-02-25T20:47:19.130Z,30.4
2023-02-25T20:53:12.288Z,30.2
2023-02-25T20:59:05.786Z,29.9
2023-02-25T21:04:59.488Z,29.6
2023-02-25T21:10:54.007Z,29.4
2023-02-25T21:16:49.410Z,29.3
2023-02-25T21:22:41.919Z,28.8
2023-02-25T21:28:35.654Z,28.4
2023-02-25T21:34:31.903Z,27.9
2023-02-25T21:40:24.550Z,27.4
2023-02-25T21:46:17.496Z,27
2023-02-25T21:52:10.599Z,26.6
2023-02-25T21:58:03.423Z,26.3
2023-02-25T22:03:56.605Z,26
2023-02-25T22:09:50.351Z,26.5
2023-02-25T22:15:42.752Z,27.9
2023-02-25T22:21:36.207Z,27.9
2023-02-25T22:27:31.126Z,27.5
2023-02-25T22:33:24.585Z,27.1
2023-02-25T22:39:02.015Z,26.8
2023-02-25T22:44:54.842Z,26.4
2023-02-25T22:50:31.981Z,26.1
2023-02-25T22:56:23.895Z,25.8
2023-02-25T23:02:16.012Z,26.8
2023-02-25T23:08:22.739Z,27.9
2023-02-25T23:14:17.209Z,27.8
2023-02-25T23:20:10.207Z,27.4
2023-02-25T23:26:02.397Z,27.1
2023-02-25T23:31:55.184Z,26.7
2023-02-25T23:37:48.960Z,26.4
2023-02-25T23:43:43.240Z,26.3
2023-02-25T23:49:39.325Z,27.5
2023-02-25T23:55:33.086Z,27.8
